Baldwinsville, NY (13027)

1:05 AM EDT on April 25, 2017 (GMT -0400)
Abbott Farms | | Change Station

Elev 502 ft 43.15 °N, 76.28 °W | Updated 7 seconds ago

Partly Cloudy
Partly Cloudy
51.5 °F
Feels Like 51.5 °F
N
1.9
Wind Variable Wind from East
Gusts 2.0 mph

Today
High -- | Low -- °F
--% Chance of Precip.
Yesterday
High -- | Low -- °F
Precip. -- in
Pressure 30.07 in
Visibility 10.0 miles
Clouds Few 18000 ft
Scattered Clouds 25000 ft
Dew Point 43 °F
Humidity 71%
Rainfall 0.00 in
Snow Depth Not available.
6:07 AM 8:00 PM
Waning Crescent, 2% visible
METAR KSYR 250454Z 09004KT 10SM FEW180 SCT250 11/04 A3008 RMK AO2 SLP182 T01060044 402110028 VISNO NW $
Pressure 30.07 in
Visibility 10.0 miles
Clouds Few 18000 ft
Scattered Clouds 25000 ft
Dew Point 43 °F
Humidity 71%
Rainfall 0.00 in
Snow Depth Not available.
6:07 AM 8:00 PM
Waning Crescent, 2% visible
METAR KSYR 250454Z 09004KT 10SM FEW180 SCT250 11/04 A3008 RMK AO2 SLP182 T01060044 402110028 VISNO NW $

Get Severe Weather Alerts

Thanks for signing up!

Be on the lookout for a verification email in your inbox.

You'll start receiving the daily forecast at 8 AM.

×

10-Day Weather Forecast

Almanac

Astronomy

Apr. 25, 2017 Rise Set
Actual Time
Civil Twilight
Nautical Twilight
Astronomical Twilight
Moon
Length of Visible Light
Length of Day
Tomorrow will be .
, % of the Moon is Illuminated

Today's Extremes

State Highs State Lows

Community

WunderPhotos

WunderBlog® & News

Nearby

Air Quality

  Air Quality AQ Index Pollutant
Not available.

Snow Depth

Station Depth Elevation

Earthquake Activity

City Distance Mag. Time & Date
Minimum magnitude displayed is 2.5.

Coastal Water Temperatures

Place Temperature

Stations

Nearby Weather Stations

Station Location Temp. Windchill Dew Point Humidity Wind Precip. Elev Updated Type
                   

Watches & Warnings

There are currently no watches in effect.